Time;durP1;ratioP1;P1;durP2;ratioP2;P2;SDS_P1;SDS_P2;PMS_P1;PMS_P2;Temp;Humidity;BMP_temperature;BMP_pressure;BME280_temperature;BME280_humidity;BME280_pressure;Samples;Min_cycle;Max_cycle;Signal;HPM_P1;HPM_P2
2023/07/15 00:00:50;;;;;;;3.30;2.30;;;20.90;99.90;;;;;;4132796;28;20303;-79
2023/07/15 00:02:52;;;;;;;3.20;2.03;;;20.90;99.90;;;;;;4131869;28;20219;-79
2023/07/15 00:04:54;;;;;;;3.60;2.33;;;20.80;99.90;;;;;;4133636;28;20303;-79
2023/07/15 00:06:57;;;;;;;4.67;2.73;;;20.80;99.90;;;;;;4132365;28;20732;-77
2023/07/15 00:08:59;;;;;;;3.70;2.50;;;20.80;99.90;;;;;;4132034;28;20223;-79
2023/07/15 00:11:02;;;;;;;4.07;2.60;;;20.70;99.90;;;;;;4130942;28;20221;-79
2023/07/15 00:13:06;;;;;;;4.57;2.53;;;20.70;99.90;;;;;;4131377;28;20239;-77
2023/07/15 00:15:11;;;;;;;5.07;2.50;;;20.60;99.90;;;;;;4130418;28;20227;-78
2023/07/15 00:17:14;;;;;;;4.63;2.57;;;20.60;99.90;;;;;;4131039;28;20734;-79
2023/07/15 00:19:17;;;;;;;3.77;2.23;;;20.60;99.90;;;;;;4130963;28;20712;-78
2023/07/15 00:21:22;;;;;;;5.87;2.50;;;20.60;99.90;;;;;;4130508;28;20209;-77
2023/07/15 00:23:27;;;;;;;6.60;2.70;;;20.50;99.90;;;;;;4132132;28;20220;-77
2023/07/15 00:25:31;;;;;;;4.13;2.30;;;20.50;99.90;;;;;;4130201;28;20276;-77
2023/07/15 00:27:34;;;;;;;3.53;2.20;;;20.50;99.90;;;;;;4131219;28;20324;-78
2023/07/15 00:29:36;;;;;;;5.27;2.50;;;20.40;99.90;;;;;;4131033;28;20213;-78
2023/07/15 00:31:38;;;;;;;4.07;2.50;;;20.40;99.90;;;;;;4131324;28;20216;-77
2023/07/15 00:33:40;;;;;;;4.10;2.60;;;20.40;99.90;;;;;;4130592;28;20312;-77
2023/07/15 00:35:43;;;;;;;3.40;2.20;;;20.40;99.90;;;;;;4130361;28;20212;-77
2023/07/15 00:37:45;;;;;;;3.37;2.30;;;20.30;99.90;;;;;;4130235;28;20212;-77
2023/07/15 00:39:48;;;;;;;5.20;3.00;;;20.30;99.90;;;;;;4130694;28;20246;-78
2023/07/15 00:41:50;;;;;;;5.37;2.57;;;20.30;99.90;;;;;;4132036;28;20331;-77
2023/07/15 00:43:58;;;;;;;5.20;2.57;;;20.20;99.90;;;;;;4129570;28;20213;-79
2023/07/15 00:46:51;;;;;;;6.30;2.70;;;20.20;99.90;;;;;;4128950;28;20602;-78
2023/07/15 00:48:57;;;;;;;6.07;2.90;;;20.20;99.90;;;;;;4130306;28;20212;-78
2023/07/15 00:50:59;;;;;;;4.97;2.60;;;20.20;99.90;;;;;;4130143;28;20299;-79
2023/07/15 00:53:01;;;;;;;6.53;2.73;;;20.10;99.90;;;;;;4129395;28;20216;-78
2023/07/15 00:55:03;;;;;;;3.67;2.57;;;20.10;99.90;;;;;;4130416;28;20675;-78
2023/07/15 00:57:06;;;;;;;5.97;2.80;;;20.10;99.90;;;;;;4131301;28;20229;-77
2023/07/15 00:59:10;;;;;;;4.30;2.67;;;20.10;99.90;;;;;;4130165;28;20688;-79
2023/07/15 01:01:13;;;;;;;3.80;2.67;;;20.10;99.90;;;;;;4129969;28;20339;-79
2023/07/15 01:03:16;;;;;;;5.77;2.53;;;20.10;99.90;;;;;;4130431;28;20240;-79
2023/07/15 01:05:18;;;;;;;3.60;2.40;;;20.10;99.90;;;;;;4131060;28;20208;-78
2023/07/15 01:07:19;;;;;;;5.00;2.50;;;20.10;99.90;;;;;;4130054;28;20688;-78
2023/07/15 01:09:22;;;;;;;5.20;2.57;;;20.00;99.90;;;;;;4132247;28;20660;-80
2023/07/15 01:11:24;;;;;;;6.07;2.63;;;20.00;99.90;;;;;;4132633;28;20213;-78
2023/07/15 01:13:26;;;;;;;4.20;2.77;;;20.00;99.90;;;;;;4134041;28;20572;-78
2023/07/15 01:15:28;;;;;;;3.80;2.43;;;20.00;99.90;;;;;;4128536;28;20509;-77
2023/07/15 01:17:30;;;;;;;4.90;2.50;;;19.90;99.90;;;;;;4130344;28;20268;-77
2023/07/15 01:19:33;;;;;;;3.67;2.33;;;19.90;99.90;;;;;;4128745;28;20250;-80
2023/07/15 01:21:35;;;;;;;6.77;2.70;;;19.90;99.90;;;;;;4123672;28;20209;-77
2023/07/15 01:23:39;;;;;;;7.07;2.33;;;19.90;99.90;;;;;;4125847;28;20238;-77
2023/07/15 01:25:41;;;;;;;5.70;2.77;;;19.90;99.90;;;;;;4130434;28;20228;-77
2023/07/15 01:27:43;;;;;;;4.53;2.80;;;19.90;99.90;;;;;;4132316;28;20232;-77
2023/07/15 01:29:45;;;;;;;5.17;2.37;;;19.80;99.90;;;;;;4128263;28;20559;-79
2023/07/15 01:31:47;;;;;;;3.27;2.40;;;19.80;99.90;;;;;;4173747;22;20721;-77
2023/07/15 01:33:49;;;;;;;4.27;2.90;;;19.80;99.90;;;;;;4130745;28;20239;-78
2023/07/15 01:35:51;;;;;;;4.30;2.47;;;19.80;99.90;;;;;;4129079;28;20216;-78
2023/07/15 01:37:53;;;;;;;4.33;2.43;;;19.80;99.90;;;;;;4129462;28;20226;-78
2023/07/15 01:39:57;;;;;;;3.50;2.10;;;19.80;99.90;;;;;;4130417;28;20220;-78
2023/07/15 01:41:59;;;;;;;4.87;2.47;;;19.70;99.90;;;;;;4125227;28;20318;-78
2023/07/15 01:44:00;;;;;;;4.67;2.13;;;19.70;99.90;;;;;;4126696;28;20303;-78
2023/07/15 01:46:02;;;;;;;4.00;2.43;;;19.70;99.90;;;;;;4126557;28;20693;-78
2023/07/15 01:48:05;;;;;;;3.23;2.20;;;19.70;99.90;;;;;;4128157;28;20223;-77
2023/07/15 01:50:08;;;;;;;3.67;2.60;;;19.70;99.90;;;;;;4134487;28;20304;-77
2023/07/15 01:52:10;;;;;;;3.30;2.03;;;19.70;99.90;;;;;;4128846;28;20233;-78
2023/07/15 01:54:11;;;;;;;5.87;2.60;;;19.70;99.90;;;;;;4126198;28;20212;-78
2023/07/15 01:56:15;;;;;;;6.30;2.63;;;19.60;99.90;;;;;;4131202;28;20306;-79
2023/07/15 01:58:17;;;;;;;5.10;2.60;;;19.60;99.90;;;;;;4135130;28;20302;-78
2023/07/15 02:00:20;;;;;;;6.13;2.90;;;19.60;99.90;;;;;;4128762;28;20584;-78
2023/07/15 02:02:22;;;;;;;4.20;2.77;;;19.60;99.90;;;;;;4128289;28;20332;-77
2023/07/15 02:04:24;;;;;;;3.70;2.50;;;19.60;99.90;;;;;;4130217;28;20216;-77
2023/07/15 02:06:26;;;;;;;4.27;2.43;;;19.60;99.90;;;;;;4128189;28;20683;-78
2023/07/15 02:08:28;;;;;;;5.03;2.50;;;19.60;99.90;;;;;;4134698;28;20564;-78
2023/07/15 02:10:31;;;;;;;8.20;2.83;;;19.60;99.90;;;;;;4130234;28;20228;-78
2023/07/15 02:12:34;;;;;;;4.93;2.57;;;19.50;99.90;;;;;;4134786;28;20239;-77
2023/07/15 02:14:37;;;;;;;5.03;2.30;;;19.50;99.90;;;;;;4132336;28;20231;-78
2023/07/15 02:16:39;;;;;;;4.40;2.17;;;19.50;99.90;;;;;;4125724;28;20436;-78
2023/07/15 02:18:41;;;;;;;3.63;2.37;;;19.50;99.90;;;;;;4132729;28;20221;-78
2023/07/15 02:20:43;;;;;;;5.30;2.50;;;19.40;99.90;;;;;;4134086;28;20266;-78
2023/07/15 02:22:44;;;;;;;5.47;2.53;;;19.50;99.90;;;;;;4128663;28;20320;-79
2023/07/15 02:24:47;;;;;;;4.80;2.40;;;19.40;99.90;;;;;;4129465;28;20601;-78
2023/07/15 02:26:48;;;;;;;4.47;2.50;;;19.40;99.90;;;;;;4126860;28;20283;-79
2023/07/15 02:28:51;;;;;;;4.53;2.70;;;19.40;99.90;;;;;;4126982;28;20212;-78
2023/07/15 02:30:53;;;;;;;4.23;2.30;;;19.40;99.90;;;;;;4126944;28;20237;-78
2023/07/15 02:32:55;;;;;;;4.20;2.20;;;19.40;99.90;;;;;;4129939;28;20226;-78
2023/07/15 02:34:57;;;;;;;5.10;2.67;;;19.30;99.90;;;;;;4123163;28;20725;-79
2023/07/15 02:36:59;;;;;;;3.47;2.33;;;19.30;99.90;;;;;;4131336;28;20580;-78
2023/07/15 02:39:01;;;;;;;3.40;2.70;;;19.30;99.90;;;;;;4126148;28;20630;-77
2023/07/15 02:41:02;;;;;;;3.33;2.40;;;19.30;99.90;;;;;;4129783;28;20249;-78
2023/07/15 02:43:03;;;;;;;4.77;2.70;;;19.30;99.90;;;;;;4131670;28;20238;-79
2023/07/15 02:45:12;;;;;;;4.37;2.40;;;19.30;99.90;;;;;;4122613;28;20215;-79
2023/07/15 02:47:13;;;;;;;3.37;2.37;;;19.30;99.90;;;;;;4119805;28;20267;-79
2023/07/15 02:49:14;;;;;;;5.00;2.77;;;19.20;99.90;;;;;;4125653;28;20224;-78
2023/07/15 02:51:16;;;;;;;4.47;2.43;;;19.20;99.90;;;;;;4122241;28;20333;-78
2023/07/15 02:53:18;;;;;;;5.23;2.20;;;19.20;99.90;;;;;;4132397;28;20311;-78
2023/07/15 02:55:20;;;;;;;4.40;2.57;;;19.20;99.90;;;;;;4121356;28;20931;-78
2023/07/15 02:57:21;;;;;;;4.73;2.50;;;19.20;99.90;;;;;;4126432;28;20768;-78
2023/07/15 02:59:23;;;;;;;4.00;2.40;;;19.20;99.90;;;;;;4129109;28;20274;-78
2023/07/15 03:01:26;;;;;;;4.20;2.33;;;19.10;99.90;;;;;;4124534;28;20359;-78
2023/07/15 03:03:30;;;;;;;5.17;2.50;;;19.10;99.90;;;;;;4130304;28;20661;-79
2023/07/15 03:05:32;;;;;;;4.67;2.30;;;19.10;99.90;;;;;;4125981;28;20209;-78
2023/07/15 03:07:34;;;;;;;4.80;2.60;;;19.10;99.90;;;;;;4127213;28;20224;-79
2023/07/15 03:09:36;;;;;;;3.80;2.50;;;19.10;99.90;;;;;;4131112;28;20204;-77
2023/07/15 03:11:38;;;;;;;4.13;2.37;;;19.10;99.90;;;;;;4128256;28;20236;-78
2023/07/15 03:13:39;;;;;;;4.40;2.60;;;19.10;99.90;;;;;;4123505;28;20311;-77
2023/07/15 03:15:42;;;;;;;3.30;2.43;;;19.10;99.90;;;;;;4129976;28;20654;-77
2023/07/15 03:17:46;;;;;;;3.57;2.30;;;19.10;99.90;;;;;;4126578;28;20208;-78
2023/07/15 03:19:48;;;;;;;5.93;2.43;;;19.10;99.90;;;;;;4123158;28;20302;-77
2023/07/15 03:21:49;;;;;;;3.90;2.67;;;19.00;99.90;;;;;;4128720;28;20243;-78
2023/07/15 03:23:51;;;;;;;4.83;2.50;;;19.10;99.90;;;;;;4125306;28;20270;-78
2023/07/15 03:25:53;;;;;;;2.87;2.20;;;19.00;99.90;;;;;;4125930;28;20246;-78
2023/07/15 03:27:55;;;;;;;4.33;2.80;;;19.00;99.90;;;;;;4131766;28;20701;-78
2023/07/15 03:29:57;;;;;;;3.67;2.33;;;19.00;99.90;;;;;;4127070;28;20242;-79
2023/07/15 03:31:59;;;;;;;3.87;2.40;;;19.00;99.90;;;;;;4128428;28;20327;-77
2023/07/15 03:34:01;;;;;;;4.30;2.33;;;19.00;99.90;;;;;;4127258;28;20665;-78
2023/07/15 03:36:04;;;;;;;4.27;2.27;;;19.00;99.90;;;;;;4121939;28;20209;-77
2023/07/15 03:38:06;;;;;;;7.20;2.13;;;19.00;99.90;;;;;;4130076;28;20750;-79
2023/07/15 03:40:10;;;;;;;5.13;2.43;;;19.00;99.90;;;;;;4122912;28;20767;-78
2023/07/15 03:42:12;;;;;;;3.47;2.27;;;19.00;99.90;;;;;;4126273;28;20231;-78
2023/07/15 03:44:14;;;;;;;3.53;2.60;;;19.00;99.90;;;;;;4132240;28;20650;-79
2023/07/15 03:46:16;;;;;;;2.67;2.10;;;19.00;99.90;;;;;;4125540;28;20777;-77
2023/07/15 03:48:18;;;;;;;4.50;2.20;;;19.00;99.90;;;;;;4126914;28;20597;-78
2023/07/15 03:50:21;;;;;;;6.17;2.53;;;19.00;99.90;;;;;;4129816;28;20699;-79
2023/07/15 03:52:24;;;;;;;3.67;2.23;;;19.00;99.90;;;;;;4125194;28;20221;-78
2023/07/15 03:54:25;;;;;;;5.53;2.27;;;19.00;99.90;;;;;;4135944;28;20232;-78
2023/07/15 03:56:27;;;;;;;6.20;2.30;;;19.00;99.90;;;;;;4138979;28;20223;-78
2023/07/15 03:58:29;;;;;;;3.27;2.30;;;19.00;99.90;;;;;;4123003;28;20302;-78
2023/07/15 04:00:31;;;;;;;3.77;2.40;;;19.00;99.90;;;;;;4133180;28;20304;-78
2023/07/15 04:02:33;;;;;;;2.80;2.20;;;19.00;99.90;;;;;;4127480;28;20771;-79
2023/07/15 04:04:35;;;;;;;5.43;2.47;;;19.00;99.90;;;;;;4123176;28;21964;-77
2023/07/15 04:06:38;;;;;;;3.27;2.13;;;19.10;99.90;;;;;;4129693;28;20239;-78
2023/07/15 04:08:40;;;;;;;5.30;2.67;;;19.10;99.90;;;;;;4132203;28;20227;-78
2023/07/15 04:10:41;;;;;;;4.53;2.63;;;19.10;99.90;;;;;;4130239;28;20334;-78
2023/07/15 04:12:43;;;;;;;3.97;2.40;;;19.10;99.90;;;;;;4131002;28;20795;-79
2023/07/15 04:14:45;;;;;;;3.67;2.23;;;19.10;99.90;;;;;;4125929;28;20490;-78
2023/07/15 04:16:47;;;;;;;4.00;2.60;;;19.10;99.90;;;;;;4128494;28;20235;-78
2023/07/15 04:18:49;;;;;;;3.23;2.40;;;19.10;99.90;;;;;;4132352;28;20743;-78
2023/07/15 04:20:51;;;;;;;3.30;2.37;;;19.10;99.90;;;;;;4130132;28;20494;-77
2023/07/15 04:22:54;;;;;;;3.93;2.10;;;19.20;99.90;;;;;;4126386;28;20493;-78
2023/07/15 04:24:56;;;;;;;3.40;2.30;;;19.20;99.90;;;;;;4129995;28;20211;-78
2023/07/15 04:26:58;;;;;;;4.63;2.33;;;19.20;99.90;;;;;;4127381;28;20692;-78
2023/07/15 04:28:59;;;;;;;3.63;2.00;;;19.20;99.90;;;;;;4131492;28;20258;-80
2023/07/15 04:31:01;;;;;;;3.17;2.00;;;19.20;99.90;;;;;;4130376;28;20322;-77
2023/07/15 04:33:03;;;;;;;3.50;2.47;;;19.20;99.90;;;;;;4133097;28;20204;-77
2023/07/15 04:35:06;;;;;;;5.10;2.40;;;19.20;99.90;;;;;;4139939;28;20209;-78
2023/07/15 04:37:08;;;;;;;3.17;2.20;;;19.20;99.90;;;;;;4135954;28;20219;-78
2023/07/15 04:39:11;;;;;;;3.67;2.47;;;19.20;99.90;;;;;;4140590;28;20292;-77
2023/07/15 04:41:13;;;;;;;3.13;2.10;;;19.30;99.90;;;;;;4140750;28;20264;-79
2023/07/15 04:43:15;;;;;;;3.63;2.33;;;19.30;99.90;;;;;;4147347;28;20219;-78
2023/07/15 04:45:17;;;;;;;3.83;2.20;;;19.30;99.90;;;;;;4152084;28;20204;-79
2023/07/15 04:47:19;;;;;;;6.07;3.40;;;19.30;99.90;;;;;;4136330;28;20229;-79
2023/07/15 04:49:20;;;;;;;8.93;3.90;;;19.30;99.90;;;;;;4128001;28;20304;-79
2023/07/15 04:51:21;;;;;;;5.43;2.83;;;19.30;99.90;;;;;;4129961;28;20621;-78
2023/07/15 04:53:25;;;;;;;4.20;2.40;;;19.30;99.90;;;;;;4133061;28;20574;-78
2023/07/15 04:55:28;;;;;;;5.37;2.37;;;19.40;99.90;;;;;;4129593;28;20248;-79
2023/07/15 04:57:30;;;;;;;4.60;2.43;;;19.40;99.90;;;;;;4128659;28;20712;-77
2023/07/15 04:59:32;;;;;;;5.37;2.67;;;19.40;99.90;;;;;;4125771;28;20668;-78
2023/07/15 05:01:34;;;;;;;5.33;2.30;;;19.40;99.90;;;;;;4125242;28;20225;-79
2023/07/15 05:03:36;;;;;;;5.80;2.40;;;19.40;99.90;;;;;;4127269;28;20223;-78
2023/07/15 05:05:39;;;;;;;3.67;2.30;;;19.40;99.90;;;;;;4131284;28;20209;-78
2023/07/15 05:07:41;;;;;;;3.67;2.30;;;19.40;99.90;;;;;;4129306;28;20291;-79
2023/07/15 05:09:44;;;;;;;3.10;2.17;;;19.40;99.90;;;;;;4128642;28;20817;-78
2023/07/15 05:11:47;;;;;;;4.93;2.23;;;19.50;99.90;;;;;;4129286;28;20236;-77
2023/07/15 05:13:49;;;;;;;3.60;2.43;;;19.40;99.90;;;;;;4130673;28;20226;-79
2023/07/15 05:15:52;;;;;;;6.97;2.20;;;19.50;99.90;;;;;;4132277;28;20219;-78
2023/07/15 05:17:54;;;;;;;6.53;3.40;;;19.60;99.90;;;;;;4130613;28;20300;-78
2023/07/15 05:19:56;;;;;;;7.63;3.83;;;19.60;99.90;;;;;;4123875;28;20299;-77
2023/07/15 05:21:58;;;;;;;3.80;2.50;;;19.60;99.90;;;;;;4132026;28;20239;-78
2023/07/15 05:24:00;;;;;;;4.60;2.70;;;19.70;99.90;;;;;;4122936;28;20208;-79
2023/07/15 05:26:02;;;;;;;9.80;2.67;;;19.70;99.90;;;;;;4131345;28;20296;-77
2023/07/15 05:28:06;;;;;;;3.60;2.43;;;19.80;99.90;;;;;;4127101;28;20231;-78
2023/07/15 05:30:09;;;;;;;3.73;2.30;;;19.80;99.90;;;;;;4126379;28;20209;-82
2023/07/15 05:32:10;;;;;;;3.57;2.30;;;19.80;99.90;;;;;;4129094;28;20248;-75
2023/07/15 05:34:13;;;;;;;4.47;2.37;;;19.80;99.90;;;;;;4128124;28;20247;-77
2023/07/15 05:36:14;;;;;;;4.47;2.67;;;19.90;99.90;;;;;;4131697;28;20216;-74
2023/07/15 05:38:16;;;;;;;4.07;2.40;;;20.00;99.90;;;;;;4124888;28;20212;-72
2023/07/15 05:40:19;;;;;;;3.17;2.20;;;20.00;99.90;;;;;;4130594;28;20219;-73
2023/07/15 05:42:20;;;;;;;6.60;2.43;;;20.00;99.90;;;;;;4127748;28;20263;-75
2023/07/15 05:44:24;;;;;;;5.17;2.43;;;20.00;99.90;;;;;;4133899;28;20231;-77
2023/07/15 05:46:25;;;;;;;5.43;2.00;;;20.00;99.90;;;;;;4127516;28;20304;-72
2023/07/15 05:48:27;;;;;;;5.83;2.50;;;20.10;99.90;;;;;;4131444;28;20217;-71
2023/07/15 05:50:34;;;;;;;5.60;2.20;;;20.10;99.90;;;;;;4121638;28;20220;-74
2023/07/15 05:52:36;;;;;;;3.93;2.40;;;20.20;99.90;;;;;;4129020;28;20204;-75
2023/07/15 05:54:38;;;;;;;5.17;2.40;;;20.20;99.90;;;;;;4128883;28;20201;-72
2023/07/15 05:56:39;;;;;;;6.27;2.30;;;20.40;99.90;;;;;;4135713;28;20311;-72
2023/07/15 05:58:41;;;;;;;4.47;2.50;;;20.40;99.90;;;;;;4126146;28;20205;-72
2023/07/15 06:00:44;;;;;;;2.77;1.97;;;20.50;99.90;;;;;;4125421;28;20298;-72
2023/07/15 06:02:46;;;;;;;5.13;2.10;;;20.60;99.90;;;;;;4126055;28;20224;-72
2023/07/15 06:04:48;;;;;;;4.70;2.03;;;20.70;99.90;;;;;;4131187;28;20705;-72
2023/07/15 06:06:50;;;;;;;6.87;2.50;;;20.80;99.90;;;;;;4135278;28;20205;-72
2023/07/15 06:08:52;;;;;;;5.23;2.53;;;20.80;99.90;;;;;;4125549;28;20215;-72
2023/07/15 06:10:53;;;;;;;4.33;2.53;;;20.80;99.90;;;;;;4124922;28;20233;-73
2023/07/15 06:12:55;;;;;;;4.23;2.40;;;20.90;99.90;;;;;;4129742;28;20213;-72
2023/07/15 06:14:57;;;;;;;4.57;2.63;;;21.00;99.90;;;;;;4129029;28;20244;-75
2023/07/15 06:17:00;;;;;;;5.77;2.70;;;21.00;99.90;;;;;;4128233;28;20287;-71
2023/07/15 06:19:02;;;;;;;9.57;2.73;;;21.10;99.90;;;;;;4132139;28;20205;-74
2023/07/15 06:21:04;;;;;;;4.93;2.20;;;21.20;99.90;;;;;;4127458;28;20240;-75
2023/07/15 06:23:06;;;;;;;4.77;2.13;;;21.20;99.90;;;;;;4123324;28;20256;-73
2023/07/15 06:25:08;;;;;;;3.20;2.30;;;21.20;99.90;;;;;;4125585;28;20221;-73
2023/07/15 06:27:10;;;;;;;4.17;2.20;;;21.30;99.90;;;;;;4130043;28;20223;-73
2023/07/15 06:29:12;;;;;;;4.37;2.27;;;21.40;99.90;;;;;;4125287;28;20221;-75
2023/07/15 06:31:14;;;;;;;4.03;2.10;;;21.50;99.90;;;;;;4129700;28;20245;-72
2023/07/15 06:33:17;;;;;;;4.97;2.13;;;21.60;99.90;;;;;;4129065;28;20858;-74
2023/07/15 06:35:19;;;;;;;5.70;2.40;;;21.70;99.90;;;;;;4135037;28;20248;-72
2023/07/15 06:37:21;;;;;;;6.13;2.10;;;21.70;99.90;;;;;;4129989;28;20764;-76
2023/07/15 06:39:25;;;;;;;3.87;2.20;;;21.80;99.90;;;;;;4131306;28;20218;-73
2023/07/15 06:41:26;;;;;;;3.23;2.13;;;21.80;99.90;;;;;;4126474;28;20239;-72
2023/07/15 06:43:28;;;;;;;4.37;2.10;;;21.90;99.90;;;;;;4140113;28;20329;-73
2023/07/15 06:45:34;;;;;;;4.17;2.03;;;21.90;99.90;;;;;;4131159;28;20300;-73
2023/07/15 06:47:36;;;;;;;5.63;2.00;;;22.00;99.90;;;;;;4121965;28;20212;-77
2023/07/15 06:49:39;;;;;;;4.37;2.27;;;22.10;99.90;;;;;;4127505;28;20220;-72
2023/07/15 06:51:41;;;;;;;3.67;2.10;;;22.20;99.90;;;;;;4130825;28;20909;-75
2023/07/15 06:53:43;;;;;;;3.10;1.93;;;22.20;99.90;;;;;;4128042;28;20233;-79
2023/07/15 06:55:45;;;;;;;4.37;2.30;;;22.30;99.90;;;;;;4125653;28;20266;-74
2023/07/15 06:57:47;;;;;;;3.83;1.90;;;22.40;99.90;;;;;;4128264;28;20223;-72
2023/07/15 06:59:49;;;;;;;2.43;2.10;;;22.50;99.90;;;;;;4125831;28;20246;-73
2023/07/15 07:01:51;;;;;;;3.70;2.03;;;22.50;99.90;;;;;;4139976;28;20720;-72
2023/07/15 07:03:53;;;;;;;3.70;2.10;;;22.50;99.90;;;;;;4128978;28;20223;-72
2023/07/15 07:05:57;;;;;;;5.23;2.23;;;22.70;99.90;;;;;;4125982;28;20592;-73
2023/07/15 07:07:58;;;;;;;3.30;1.97;;;22.80;99.90;;;;;;4128237;28;20219;-76
2023/07/15 07:10:01;;;;;;;4.00;2.00;;;22.80;99.90;;;;;;4129827;28;20290;-73
2023/07/15 07:12:03;;;;;;;4.57;2.50;;;22.90;99.90;;;;;;4127833;28;20232;-72
2023/07/15 07:14:05;;;;;;;5.23;2.30;;;23.00;99.90;;;;;;4124795;28;20220;-74
2023/07/15 07:16:08;;;;;;;3.53;2.30;;;23.20;99.90;;;;;;4130250;28;20247;-73
2023/07/15 07:18:11;;;;;;;3.33;2.10;;;23.30;99.90;;;;;;4130724;28;20203;-74
2023/07/15 07:20:13;;;;;;;3.90;2.20;;;23.50;99.90;;;;;;4134391;28;20213;-71
2023/07/15 07:22:16;;;;;;;3.97;2.37;;;23.60;99.90;;;;;;4128855;28;20665;-73
2023/07/15 07:24:18;;;;;;;2.50;1.70;;;23.70;99.90;;;;;;4130318;28;20343;-72
2023/07/15 07:26:20;;;;;;;2.67;1.90;;;23.80;99.90;;;;;;4127140;28;20209;-74
2023/07/15 07:28:23;;;;;;;3.53;1.90;;;23.90;99.90;;;;;;4129226;28;20336;-71
2023/07/15 07:30:25;;;;;;;4.13;2.33;;;24.00;99.90;;;;;;4130566;28;20196;-74
2023/07/15 07:32:27;;;;;;;4.77;1.83;;;24.10;99.90;;;;;;4131204;28;20222;-75
2023/07/15 07:34:29;;;;;;;3.70;2.27;;;24.30;99.90;;;;;;4125869;28;20259;-75
2023/07/15 07:36:31;;;;;;;2.57;2.00;;;24.30;99.90;;;;;;4127295;28;20246;-71
2023/07/15 07:38:34;;;;;;;3.13;2.10;;;24.50;99.90;;;;;;4129158;28;20725;-76
2023/07/15 07:40:36;;;;;;;3.10;1.83;;;24.50;99.90;;;;;;4131594;28;20212;-71
2023/07/15 07:42:38;;;;;;;2.37;1.87;;;24.60;99.90;;;;;;4131639;28;20212;-73
2023/07/15 07:44:40;;;;;;;3.30;1.83;;;24.60;99.90;;;;;;4127917;28;20645;-71
2023/07/15 07:46:42;;;;;;;2.67;1.90;;;24.70;99.90;;;;;;4134160;28;20299;-72
2023/07/15 07:48:44;;;;;;;4.70;2.13;;;24.80;99.90;;;;;;4136214;28;20232;-72
2023/07/15 07:50:46;;;;;;;2.33;1.80;;;24.90;99.90;;;;;;4137294;28;20322;-72
2023/07/15 07:52:48;;;;;;;2.37;1.77;;;25.00;99.90;;;;;;4123701;28;20307;-71
2023/07/15 07:54:50;;;;;;;3.17;2.10;;;25.10;99.90;;;;;;4136057;28;20281;-73
2023/07/15 07:56:52;;;;;;;2.93;1.80;;;25.20;99.90;;;;;;4132450;28;20212;-70
2023/07/15 07:58:57;;;;;;;4.20;2.20;;;25.20;99.90;;;;;;4132652;28;20211;-72
2023/07/15 08:00:59;;;;;;;5.47;2.10;;;25.40;99.90;;;;;;4136530;28;20239;-72
2023/07/15 08:03:01;;;;;;;3.73;1.73;;;25.50;99.00;;;;;;4132409;28;20733;-72
2023/07/15 08:05:04;;;;;;;3.00;2.20;;;25.60;99.30;;;;;;4132485;28;20208;-72
2023/07/15 08:07:06;;;;;;;4.43;2.23;;;25.70;98.80;;;;;;4135137;28;20204;-72
2023/07/15 08:09:07;;;;;;;4.03;2.40;;;25.80;95.60;;;;;;4134910;28;20232;-71
2023/07/15 08:11:11;;;;;;;3.20;2.23;;;25.90;95.40;;;;;;4137566;28;20640;-75
2023/07/15 08:13:13;;;;;;;2.70;1.97;;;26.10;95.60;;;;;;4138688;28;20311;-78
2023/07/15 08:15:15;;;;;;;4.37;2.07;;;26.20;95.00;;;;;;4130963;28;20276;-77
2023/07/15 08:17:17;;;;;;;6.00;1.87;;;26.30;93.90;;;;;;4135620;28;20213;-75
2023/07/15 08:19:19;;;;;;;2.23;1.90;;;26.40;97.60;;;;;;4131729;28;20583;-72
2023/07/15 08:21:21;;;;;;;3.50;1.87;;;26.40;99.90;;;;;;4129964;28;20229;-70
2023/07/15 08:23:23;;;;;;;2.43;1.97;;;26.40;99.90;;;;;;4128666;28;20213;-74
2023/07/15 08:25:25;;;;;;;3.13;1.83;;;26.40;97.70;;;;;;4136304;28;20308;-70
2023/07/15 08:27:28;;;;;;;3.20;2.13;;;26.40;99.90;;;;;;4123117;28;20205;-70
2023/07/15 08:29:30;;;;;;;4.60;2.07;;;26.40;98.20;;;;;;4131292;28;20312;-71
2023/07/15 08:31:33;;;;;;;3.20;1.93;;;26.50;90.10;;;;;;4133718;28;20319;-72
2023/07/15 08:33:35;;;;;;;3.73;1.97;;;26.50;93.70;;;;;;4132946;28;20266;-80
2023/07/15 08:35:37;;;;;;;3.47;2.20;;;26.60;99.10;;;;;;4135475;28;20266;-80
2023/07/15 08:37:42;;;;;;;3.47;1.80;;;26.50;99.90;;;;;;4133750;28;20219;-78
2023/07/15 08:39:43;;;;;;;2.70;1.90;;;26.60;94.20;;;;;;4131395;28;20209;-81
2023/07/15 08:41:46;;;;;;;4.60;1.93;;;26.60;99.10;;;;;;4136875;28;20251;-77
2023/07/15 08:43:49;;;;;;;4.10;2.23;;;26.60;83.70;;;;;;4135377;28;20212;-78
2023/07/15 08:45:52;;;;;;;2.17;1.80;;;26.70;68.70;;;;;;4134913;28;20207;-80
2023/07/15 08:47:54;;;;;;;3.43;1.90;;;26.70;74.10;;;;;;4132162;28;20227;-75
2023/07/15 08:49:59;;;;;;;3.83;2.00;;;26.90;64.50;;;;;;4124996;28;20763;-75
2023/07/15 08:52:02;;;;;;;3.50;1.70;;;27.00;59.80;;;;;;4132724;28;20454;-77
2023/07/15 08:54:08;;;;;;;3.97;1.60;;;27.20;57.30;;;;;;4139736;28;20216;-76
2023/07/15 08:56:11;;;;;;;3.33;1.50;;;27.30;53.60;;;;;;4129702;28;20220;-76
2023/07/15 08:58:13;;;;;;;4.57;1.60;;;27.40;58.80;;;;;;4131902;28;20223;-75
2023/07/15 09:00:17;;;;;;;3.33;1.70;;;27.40;56.80;;;;;;4125654;28;20305;-77
2023/07/15 09:02:19;;;;;;;2.53;1.70;;;27.40;60.10;;;;;;4130096;28;20324;-76
2023/07/15 09:04:21;;;;;;;6.00;1.70;;;27.40;59.20;;;;;;4145835;28;20255;-80
2023/07/15 09:06:23;;;;;;;4.23;1.93;;;27.50;57.10;;;;;;4132495;28;20646;-76
2023/07/15 09:08:26;;;;;;;3.80;2.10;;;27.40;70.50;;;;;;4125762;28;20240;-75
2023/07/15 09:10:28;;;;;;;6.83;2.30;;;27.40;84.30;;;;;;4125537;28;20242;-74
2023/07/15 09:12:30;;;;;;;5.23;2.30;;;27.30;87.10;;;;;;4134109;28;20212;-76
2023/07/15 09:14:32;;;;;;;3.80;2.00;;;27.40;65.90;;;;;;4129838;28;20404;-73
2023/07/15 09:16:39;;;;;;;5.17;1.80;;;27.50;57.20;;;;;;4126814;28;20866;-75
2023/07/15 09:18:40;;;;;;;4.77;2.27;;;27.60;50.30;;;;;;4124885;28;20308;-76
2023/07/15 09:20:42;;;;;;;2.77;2.20;;;27.70;53.20;;;;;;4128146;28;20212;-72
2023/07/15 09:22:45;;;;;;;2.73;1.97;;;27.70;55.70;;;;;;4138688;28;20219;-74
2023/07/15 09:24:47;;;;;;;3.40;1.80;;;27.80;58.50;;;;;;4129540;28;20215;-72
2023/07/15 09:26:52;;;;;;;5.60;2.30;;;27.90;55.50;;;;;;4129874;28;20216;-77
2023/07/15 09:28:55;;;;;;;2.63;1.57;;;28.00;49.90;;;;;;4135721;28;20229;-75
2023/07/15 09:30:59;;;;;;;4.60;2.00;;;28.00;51.60;;;;;;4128861;28;20240;-77
2023/07/15 09:33:02;;;;;;;2.63;1.57;;;28.20;51.40;;;;;;4135024;28;20219;-72
2023/07/15 09:35:05;;;;;;;4.23;1.63;;;28.20;49.00;;;;;;4133497;28;20219;-74
2023/07/15 09:37:07;;;;;;;2.13;1.70;;;28.30;45.20;;;;;;4131695;28;20681;-75
2023/07/15 09:39:12;;;;;;;3.20;1.60;;;28.50;44.40;;;;;;4133773;28;20455;-75
2023/07/15 09:41:20;;;;;;;1.90;1.42;;;28.60;44.00;;;;;;4131888;28;20259;-73
2023/07/15 09:43:22;;;;;;;2.40;1.60;;;28.70;44.60;;;;;;4124363;28;20228;-74
2023/07/15 09:45:34;;;;;;;2.75;1.65;;;28.90;43.30;;;;;;4130850;28;20212;-74
2023/07/15 09:47:36;;;;;;;3.45;2.05;;;29.00;44.60;;;;;;4133214;28;20205;-74
2023/07/15 09:49:39;;;;;;;5.07;1.92;;;29.10;42.70;;;;;;4131061;28;20225;-75
2023/07/15 09:51:42;;;;;;;3.65;1.98;;;29.20;41.40;;;;;;4127763;28;20311;-74
2023/07/15 09:53:49;;;;;;;4.15;2.10;;;29.30;41.30;;;;;;4132130;28;20220;-75
2023/07/15 09:55:52;;;;;;;3.58;2.40;;;29.40;41.10;;;;;;4126289;28;20215;-74
2023/07/15 09:57:58;;;;;;;2.95;1.85;;;29.50;40.80;;;;;;4130970;28;20204;-74
2023/07/15 10:00:00;;;;;;;2.28;1.40;;;29.60;40.00;;;;;;4127649;28;20208;-73
2023/07/15 10:02:10;;;;;;;2.00;1.58;;;29.80;38.90;;;;;;4132583;28;20310;-75
2023/07/15 10:04:18;;;;;;;2.47;1.67;;;29.90;38.40;;;;;;4126947;28;20208;-75
2023/07/15 10:06:22;;;;;;;3.90;1.70;;;29.90;39.10;;;;;;4126756;28;20212;-74
2023/07/15 10:08:25;;;;;;;3.38;1.65;;;30.10;37.10;;;;;;4128516;28;20208;-75
2023/07/15 10:10:27;;;;;;;2.88;1.70;;;30.20;36.20;;;;;;4127536;28;20227;-75
2023/07/15 10:12:30;;;;;;;3.00;1.52;;;30.20;38.80;;;;;;4128190;28;20259;-74
2023/07/15 10:14:34;;;;;;;2.17;1.60;;;30.20;38.70;;;;;;4130216;28;20405;-74
2023/07/15 10:16:36;;;;;;;3.42;1.90;;;30.30;37.50;;;;;;4125522;28;20212;-76
2023/07/15 10:18:38;;;;;;;3.17;1.50;;;30.40;35.40;;;;;;4123527;28;20292;-74
2023/07/15 10:20:46;;;;;;;2.63;1.45;;;30.50;34.90;;;;;;4130899;28;20205;-74
2023/07/15 10:22:51;;;;;;;2.00;1.58;;;30.60;34.20;;;;;;4126451;28;20212;-75
2023/07/15 10:24:55;;;;;;;4.72;1.95;;;30.80;33.90;;;;;;4132326;28;20570;-75
2023/07/15 10:26:57;;;;;;;2.10;1.17;;;30.90;32.60;;;;;;4124835;28;20252;-76
2023/07/15 10:29:00;;;;;;;2.78;1.35;;;31.10;30.90;;;;;;4126113;28;20307;-75
2023/07/15 10:31:09;;;;;;;2.00;1.27;;;31.20;31.10;;;;;;4128752;28;20270;-75
2023/07/15 10:33:14;;;;;;;2.35;1.60;;;31.30;30.70;;;;;;4129665;28;20207;-75
2023/07/15 10:35:20;;;;;;;1.77;1.30;;;31.30;30.70;;;;;;4130492;28;20212;-76
2023/07/15 10:37:22;;;;;;;1.48;1.13;;;31.50;30.20;;;;;;4128913;28;20219;-76
2023/07/15 10:39:32;;;;;;;1.63;1.38;;;31.50;30.10;;;;;;4127216;28;20208;-77